sensor_id;sensor_type;location;lat;lon;timestamp;P1;durP1;ratioP1;P2;durP2;ratioP2
76065;SDS011;64763;48.928;8.474;2023-04-24T00:01:29;2.00;;;1.00;;
76065;SDS011;64763;48.928;8.474;2023-04-24T00:03:56;1.95;;;1.20;;
76065;SDS011;64763;48.928;8.474;2023-04-24T00:06:24;3.85;;;1.17;;
76065;SDS011;64763;48.928;8.474;2023-04-24T00:08:58;3.03;;;1.10;;
76065;SDS011;64763;48.928;8.474;2023-04-24T00:11:25;1.77;;;1.00;;
76065;SDS011;64763;48.928;8.474;2023-04-24T00:13:50;1.65;;;1.13;;
76065;SDS011;64763;48.928;8.474;2023-04-24T00:16:16;1.75;;;1.17;;
76065;SDS011;64763;48.928;8.474;2023-04-24T00:18:41;3.40;;;1.10;;
76065;SDS011;64763;48.928;8.474;2023-04-24T00:21:06;1.85;;;1.00;;
76065;SDS011;64763;48.928;8.474;2023-04-24T00:23:32;1.30;;;1.05;;
76065;SDS011;64763;48.928;8.474;2023-04-24T00:25:57;2.95;;;1.10;;
76065;SDS011;64763;48.928;8.474;2023-04-24T00:28:22;1.67;;;1.02;;
76065;SDS011;64763;48.928;8.474;2023-04-24T00:30:48;3.22;;;1.20;;
76065;SDS011;64763;48.928;8.474;2023-04-24T00:33:13;1.65;;;0.93;;
76065;SDS011;64763;48.928;8.474;2023-04-24T00:35:39;2.90;;;1.15;;
76065;SDS011;64763;48.928;8.474;2023-04-24T00:38:05;1.27;;;0.82;;
76065;SDS011;64763;48.928;8.474;2023-04-24T00:40:30;4.32;;;1.40;;
76065;SDS011;64763;48.928;8.474;2023-04-24T00:42:55;1.23;;;0.93;;
76065;SDS011;64763;48.928;8.474;2023-04-24T00:45:21;2.55;;;1.50;;
76065;SDS011;64763;48.928;8.474;2023-04-24T00:47:46;1.92;;;1.00;;
76065;SDS011;64763;48.928;8.474;2023-04-24T00:50:14;4.30;;;1.25;;
76065;SDS011;64763;48.928;8.474;2023-04-24T00:52:40;1.52;;;0.85;;
76065;SDS011;64763;48.928;8.474;2023-04-24T00:55:06;2.42;;;1.23;;
76065;SDS011;64763;48.928;8.474;2023-04-24T00:57:32;3.75;;;1.13;;
76065;SDS011;64763;48.928;8.474;2023-04-24T00:59:57;2.95;;;1.35;;
76065;SDS011;64763;48.928;8.474;2023-04-24T01:02:23;3.53;;;1.40;;
76065;SDS011;64763;48.928;8.474;2023-04-24T01:04:50;1.40;;;0.90;;
76065;SDS011;64763;48.928;8.474;2023-04-24T01:07:17;1.70;;;1.02;;
76065;SDS011;64763;48.928;8.474;2023-04-24T01:09:45;3.22;;;1.25;;
76065;SDS011;64763;48.928;8.474;2023-04-24T01:12:13;2.88;;;1.35;;
76065;SDS011;64763;48.928;8.474;2023-04-24T01:14:39;2.75;;;1.10;;
76065;SDS011;64763;48.928;8.474;2023-04-24T01:17:05;2.22;;;1.35;;
76065;SDS011;64763;48.928;8.474;2023-04-24T01:19:30;5.97;;;2.63;;
76065;SDS011;64763;48.928;8.474;2023-04-24T01:21:57;2.53;;;1.45;;
76065;SDS011;64763;48.928;8.474;2023-04-24T01:24:23;2.28;;;1.38;;
76065;SDS011;64763;48.928;8.474;2023-04-24T01:26:48;2.38;;;1.23;;
76065;SDS011;64763;48.928;8.474;2023-04-24T01:29:14;2.42;;;1.27;;
76065;SDS011;64763;48.928;8.474;2023-04-24T01:31:39;2.45;;;0.93;;
76065;SDS011;64763;48.928;8.474;2023-04-24T01:34:05;2.47;;;1.02;;
76065;SDS011;64763;48.928;8.474;2023-04-24T01:36:30;3.92;;;0.98;;
76065;SDS011;64763;48.928;8.474;2023-04-24T01:38:57;2.28;;;1.27;;
76065;SDS011;64763;48.928;8.474;2023-04-24T01:41:22;1.92;;;1.05;;
76065;SDS011;64763;48.928;8.474;2023-04-24T01:43:48;3.45;;;1.15;;
76065;SDS011;64763;48.928;8.474;2023-04-24T01:46:14;2.85;;;0.90;;
76065;SDS011;64763;48.928;8.474;2023-04-24T01:48:40;3.08;;;1.20;;
76065;SDS011;64763;48.928;8.474;2023-04-24T01:51:06;1.52;;;1.08;;
76065;SDS011;64763;48.928;8.474;2023-04-24T01:53:32;2.88;;;1.08;;
76065;SDS011;64763;48.928;8.474;2023-04-24T01:55:57;2.95;;;1.20;;
76065;SDS011;64763;48.928;8.474;2023-04-24T01:58:23;1.90;;;1.00;;
76065;SDS011;64763;48.928;8.474;2023-04-24T02:00:48;1.80;;;1.08;;
76065;SDS011;64763;48.928;8.474;2023-04-24T02:03:13;1.65;;;1.15;;
76065;SDS011;64763;48.928;8.474;2023-04-24T02:05:39;1.33;;;1.02;;
76065;SDS011;64763;48.928;8.474;2023-04-24T02:08:04;2.63;;;1.25;;
76065;SDS011;64763;48.928;8.474;2023-04-24T02:10:29;1.67;;;1.00;;
76065;SDS011;64763;48.928;8.474;2023-04-24T02:12:55;1.83;;;1.05;;
76065;SDS011;64763;48.928;8.474;2023-04-24T02:15:20;3.10;;;1.17;;
76065;SDS011;64763;48.928;8.474;2023-04-24T02:17:46;2.38;;;0.90;;
76065;SDS011;64763;48.928;8.474;2023-04-24T02:20:11;1.88;;;1.05;;
76065;SDS011;64763;48.928;8.474;2023-04-24T02:22:36;1.40;;;1.00;;
76065;SDS011;64763;48.928;8.474;2023-04-24T02:25:02;1.60;;;1.08;;
76065;SDS011;64763;48.928;8.474;2023-04-24T02:27:27;2.92;;;1.05;;
76065;SDS011;64763;48.928;8.474;2023-04-24T02:29:53;1.80;;;1.20;;
76065;SDS011;64763;48.928;8.474;2023-04-24T02:32:18;2.35;;;1.10;;
76065;SDS011;64763;48.928;8.474;2023-04-24T02:34:43;2.70;;;1.02;;
76065;SDS011;64763;48.928;8.474;2023-04-24T02:37:09;1.00;;;0.82;;
76065;SDS011;64763;48.928;8.474;2023-04-24T02:39:34;2.95;;;1.63;;
76065;SDS011;64763;48.928;8.474;2023-04-24T02:42:00;1.75;;;0.98;;
76065;SDS011;64763;48.928;8.474;2023-04-24T02:44:26;2.45;;;1.10;;
76065;SDS011;64763;48.928;8.474;2023-04-24T02:46:52;1.73;;;0.88;;
76065;SDS011;64763;48.928;8.474;2023-04-24T02:49:17;2.95;;;1.05;;
76065;SDS011;64763;48.928;8.474;2023-04-24T02:51:42;2.72;;;1.30;;
76065;SDS011;64763;48.928;8.474;2023-04-24T02:54:08;1.90;;;1.02;;
76065;SDS011;64763;48.928;8.474;2023-04-24T02:56:34;2.42;;;1.25;;
76065;SDS011;64763;48.928;8.474;2023-04-24T02:59:00;3.28;;;1.20;;
76065;SDS011;64763;48.928;8.474;2023-04-24T03:01:25;2.03;;;1.20;;
76065;SDS011;64763;48.928;8.474;2023-04-24T03:03:50;4.50;;;1.30;;
76065;SDS011;64763;48.928;8.474;2023-04-24T03:06:16;1.38;;;1.05;;
76065;SDS011;64763;48.928;8.474;2023-04-24T03:08:41;2.67;;;1.13;;
76065;SDS011;64763;48.928;8.474;2023-04-24T03:11:06;2.03;;;1.42;;
76065;SDS011;64763;48.928;8.474;2023-04-24T03:13:32;2.28;;;1.02;;
76065;SDS011;64763;48.928;8.474;2023-04-24T03:15:57;2.25;;;1.23;;
76065;SDS011;64763;48.928;8.474;2023-04-24T03:18:22;2.47;;;1.10;;
76065;SDS011;64763;48.928;8.474;2023-04-24T03:20:48;4.15;;;1.77;;
76065;SDS011;64763;48.928;8.474;2023-04-24T03:23:13;3.92;;;1.60;;
76065;SDS011;64763;48.928;8.474;2023-04-24T03:25:38;1.92;;;0.90;;
76065;SDS011;64763;48.928;8.474;2023-04-24T03:28:04;1.55;;;0.98;;
76065;SDS011;64763;48.928;8.474;2023-04-24T03:30:29;1.92;;;1.20;;
76065;SDS011;64763;48.928;8.474;2023-04-24T03:32:55;5.43;;;1.80;;
76065;SDS011;64763;48.928;8.474;2023-04-24T03:35:20;3.60;;;1.67;;
76065;SDS011;64763;48.928;8.474;2023-04-24T03:37:46;2.72;;;1.63;;
76065;SDS011;64763;48.928;8.474;2023-04-24T03:40:12;5.43;;;1.80;;
76065;SDS011;64763;48.928;8.474;2023-04-24T03:42:37;2.92;;;1.70;;
76065;SDS011;64763;48.928;8.474;2023-04-24T03:45:03;2.63;;;1.73;;
76065;SDS011;64763;48.928;8.474;2023-04-24T03:47:28;3.40;;;1.55;;
76065;SDS011;64763;48.928;8.474;2023-04-24T03:49:54;4.85;;;1.80;;
76065;SDS011;64763;48.928;8.474;2023-04-24T03:52:20;3.20;;;2.40;;
76065;SDS011;64763;48.928;8.474;2023-04-24T03:54:46;5.15;;;2.30;;
76065;SDS011;64763;48.928;8.474;2023-04-24T03:57:11;3.50;;;2.28;;
76065;SDS011;64763;48.928;8.474;2023-04-24T03:59:36;3.90;;;2.45;;
76065;SDS011;64763;48.928;8.474;2023-04-24T04:02:02;3.97;;;2.33;;
76065;SDS011;64763;48.928;8.474;2023-04-24T04:04:27;3.63;;;2.35;;
76065;SDS011;64763;48.928;8.474;2023-04-24T04:06:53;5.65;;;2.80;;
76065;SDS011;64763;48.928;8.474;2023-04-24T04:09:18;4.45;;;2.47;;
76065;SDS011;64763;48.928;8.474;2023-04-24T04:11:43;7.32;;;2.63;;
76065;SDS011;64763;48.928;8.474;2023-04-24T04:14:09;3.75;;;2.30;;
76065;SDS011;64763;48.928;8.474;2023-04-24T04:16:34;8.05;;;2.63;;
76065;SDS011;64763;48.928;8.474;2023-04-24T04:19:01;4.85;;;2.40;;
76065;SDS011;64763;48.928;8.474;2023-04-24T04:21:27;4.20;;;2.22;;
76065;SDS011;64763;48.928;8.474;2023-04-24T04:23:53;3.13;;;2.10;;
76065;SDS011;64763;48.928;8.474;2023-04-24T04:26:18;4.10;;;2.38;;
76065;SDS011;64763;48.928;8.474;2023-04-24T04:28:44;5.85;;;2.72;;
76065;SDS011;64763;48.928;8.474;2023-04-24T04:31:09;3.95;;;2.75;;
76065;SDS011;64763;48.928;8.474;2023-04-24T04:33:35;4.47;;;2.45;;
76065;SDS011;64763;48.928;8.474;2023-04-24T04:36:02;4.85;;;2.42;;
76065;SDS011;64763;48.928;8.474;2023-04-24T04:38:28;3.28;;;2.42;;
76065;SDS011;64763;48.928;8.474;2023-04-24T04:40:54;4.80;;;2.42;;
76065;SDS011;64763;48.928;8.474;2023-04-24T04:43:22;4.15;;;2.80;;
76065;SDS011;64763;48.928;8.474;2023-04-24T04:45:47;4.18;;;2.70;;
76065;SDS011;64763;48.928;8.474;2023-04-24T04:48:13;4.13;;;2.70;;
76065;SDS011;64763;48.928;8.474;2023-04-24T04:50:39;7.07;;;2.80;;
76065;SDS011;64763;48.928;8.474;2023-04-24T04:53:04;3.97;;;2.63;;
76065;SDS011;64763;48.928;8.474;2023-04-24T04:55:30;4.18;;;2.95;;
76065;SDS011;64763;48.928;8.474;2023-04-24T04:57:56;4.07;;;2.90;;
76065;SDS011;64763;48.928;8.474;2023-04-24T05:00:21;5.97;;;2.78;;
76065;SDS011;64763;48.928;8.474;2023-04-24T05:02:50;6.45;;;3.08;;
76065;SDS011;64763;48.928;8.474;2023-04-24T05:05:16;4.63;;;2.90;;
76065;SDS011;64763;48.928;8.474;2023-04-24T05:07:42;4.63;;;2.90;;
76065;SDS011;64763;48.928;8.474;2023-04-24T05:10:08;5.68;;;2.60;;
76065;SDS011;64763;48.928;8.474;2023-04-24T05:12:33;4.63;;;2.80;;
76065;SDS011;64763;48.928;8.474;2023-04-24T05:14:59;4.82;;;3.63;;
76065;SDS011;64763;48.928;8.474;2023-04-24T05:17:24;4.10;;;3.03;;
76065;SDS011;64763;48.928;8.474;2023-04-24T05:19:50;4.40;;;3.25;;
76065;SDS011;64763;48.928;8.474;2023-04-24T05:22:16;5.25;;;3.03;;
76065;SDS011;64763;48.928;8.474;2023-04-24T05:24:43;5.65;;;3.00;;
76065;SDS011;64763;48.928;8.474;2023-04-24T05:27:08;6.47;;;3.47;;
76065;SDS011;64763;48.928;8.474;2023-04-24T05:29:34;6.72;;;3.40;;
76065;SDS011;64763;48.928;8.474;2023-04-24T05:32:00;4.57;;;3.05;;
76065;SDS011;64763;48.928;8.474;2023-04-24T05:34:25;5.80;;;2.97;;
76065;SDS011;64763;48.928;8.474;2023-04-24T05:36:51;13.00;;;3.53;;
76065;SDS011;64763;48.928;8.474;2023-04-24T05:39:17;4.40;;;2.88;;
76065;SDS011;64763;48.928;8.474;2023-04-24T05:41:42;4.13;;;2.70;;
76065;SDS011;64763;48.928;8.474;2023-04-24T05:44:08;4.35;;;2.97;;
76065;SDS011;64763;48.928;8.474;2023-04-24T05:46:33;4.38;;;2.72;;
76065;SDS011;64763;48.928;8.474;2023-04-24T05:48:59;3.65;;;2.80;;
76065;SDS011;64763;48.928;8.474;2023-04-24T05:51:24;4.55;;;2.67;;
76065;SDS011;64763;48.928;8.474;2023-04-24T05:53:51;4.30;;;2.67;;
76065;SDS011;64763;48.928;8.474;2023-04-24T05:56:16;3.97;;;2.83;;
76065;SDS011;64763;48.928;8.474;2023-04-24T05:58:42;4.28;;;3.50;;
76065;SDS011;64763;48.928;8.474;2023-04-24T06:01:07;5.35;;;2.80;;
76065;SDS011;64763;48.928;8.474;2023-04-24T06:03:32;5.93;;;2.85;;
76065;SDS011;64763;48.928;8.474;2023-04-24T06:05:59;4.78;;;2.85;;
76065;SDS011;64763;48.928;8.474;2023-04-24T06:08:24;4.18;;;2.55;;
76065;SDS011;64763;48.928;8.474;2023-04-24T06:10:50;3.90;;;2.58;;
76065;SDS011;64763;48.928;8.474;2023-04-24T06:13:16;4.20;;;2.40;;
76065;SDS011;64763;48.928;8.474;2023-04-24T06:15:41;4.53;;;2.67;;
76065;SDS011;64763;48.928;8.474;2023-04-24T06:18:07;4.35;;;2.38;;
76065;SDS011;64763;48.928;8.474;2023-04-24T06:20:34;3.72;;;2.55;;
76065;SDS011;64763;48.928;8.474;2023-04-24T06:23:00;3.55;;;2.60;;
76065;SDS011;64763;48.928;8.474;2023-04-24T06:25:25;3.17;;;2.20;;
76065;SDS011;64763;48.928;8.474;2023-04-24T06:27:51;4.95;;;2.83;;
76065;SDS011;64763;48.928;8.474;2023-04-24T06:30:17;4.70;;;2.53;;
76065;SDS011;64763;48.928;8.474;2023-04-24T06:32:42;3.63;;;2.58;;
76065;SDS011;64763;48.928;8.474;2023-04-24T06:35:07;4.65;;;2.58;;
76065;SDS011;64763;48.928;8.474;2023-04-24T06:37:34;4.63;;;2.50;;
76065;SDS011;64763;48.928;8.474;2023-04-24T06:40:00;3.75;;;2.53;;
76065;SDS011;64763;48.928;8.474;2023-04-24T06:42:25;4.53;;;2.22;;
76065;SDS011;64763;48.928;8.474;2023-04-24T06:44:50;6.07;;;2.92;;
76065;SDS011;64763;48.928;8.474;2023-04-24T06:47:16;4.70;;;2.42;;
76065;SDS011;64763;48.928;8.474;2023-04-24T06:49:41;3.78;;;2.30;;
76065;SDS011;64763;48.928;8.474;2023-04-24T06:52:07;3.95;;;2.30;;
76065;SDS011;64763;48.928;8.474;2023-04-24T06:54:32;4.13;;;2.35;;
76065;SDS011;64763;48.928;8.474;2023-04-24T06:57:01;4.22;;;2.33;;
76065;SDS011;64763;48.928;8.474;2023-04-24T06:59:27;4.35;;;2.40;;
76065;SDS011;64763;48.928;8.474;2023-04-24T07:01:53;4.43;;;2.20;;
76065;SDS011;64763;48.928;8.474;2023-04-24T07:04:18;5.03;;;2.80;;
76065;SDS011;64763;48.928;8.474;2023-04-24T07:06:44;3.85;;;2.58;;
76065;SDS011;64763;48.928;8.474;2023-04-24T07:09:10;3.00;;;2.05;;
76065;SDS011;64763;48.928;8.474;2023-04-24T07:11:36;3.00;;;2.22;;
76065;SDS011;64763;48.928;8.474;2023-04-24T07:14:03;3.80;;;2.20;;
76065;SDS011;64763;48.928;8.474;2023-04-24T07:16:28;3.25;;;2.30;;
76065;SDS011;64763;48.928;8.474;2023-04-24T07:18:55;3.97;;;2.45;;
76065;SDS011;64763;48.928;8.474;2023-04-24T07:21:20;3.42;;;2.08;;
76065;SDS011;64763;48.928;8.474;2023-04-24T07:23:45;5.38;;;2.17;;
76065;SDS011;64763;48.928;8.474;2023-04-24T07:26:11;3.53;;;2.03;;
76065;SDS011;64763;48.928;8.474;2023-04-24T07:28:36;2.40;;;1.70;;
76065;SDS011;64763;48.928;8.474;2023-04-24T07:31:01;3.22;;;1.80;;
76065;SDS011;64763;48.928;8.474;2023-04-24T07:33:27;3.00;;;2.05;;
76065;SDS011;64763;48.928;8.474;2023-04-24T07:35:52;3.70;;;1.98;;
76065;SDS011;64763;48.928;8.474;2023-04-24T07:38:18;4.72;;;2.17;;
76065;SDS011;64763;48.928;8.474;2023-04-24T07:40:46;3.45;;;1.83;;
76065;SDS011;64763;48.928;8.474;2023-04-24T07:43:11;5.18;;;2.20;;
76065;SDS011;64763;48.928;8.474;2023-04-24T07:45:37;3.55;;;1.95;;
76065;SDS011;64763;48.928;8.474;2023-04-24T07:48:02;1.65;;;1.23;;
76065;SDS011;64763;48.928;8.474;2023-04-24T07:50:28;3.22;;;2.00;;
76065;SDS011;64763;48.928;8.474;2023-04-24T07:52:53;6.00;;;2.08;;
76065;SDS011;64763;48.928;8.474;2023-04-24T07:55:19;3.17;;;2.00;;
76065;SDS011;64763;48.928;8.474;2023-04-24T07:57:44;4.72;;;2.08;;
76065;SDS011;64763;48.928;8.474;2023-04-24T08:00:10;3.70;;;1.85;;
76065;SDS011;64763;48.928;8.474;2023-04-24T08:02:35;2.85;;;1.85;;
76065;SDS011;64763;48.928;8.474;2023-04-24T08:05:01;2.97;;;2.00;;
76065;SDS011;64763;48.928;8.474;2023-04-24T08:07:28;9.98;;;3.88;;
76065;SDS011;64763;48.928;8.474;2023-04-24T08:09:53;2.65;;;1.70;;
76065;SDS011;64763;48.928;8.474;2023-04-24T08:12:19;1.65;;;1.33;;
76065;SDS011;64763;48.928;8.474;2023-04-24T08:14:44;2.33;;;1.63;;
76065;SDS011;64763;48.928;8.474;2023-04-24T08:17:09;2.60;;;1.80;;
76065;SDS011;64763;48.928;8.474;2023-04-24T08:19:35;2.72;;;1.75;;
76065;SDS011;64763;48.928;8.474;2023-04-24T08:22:00;2.53;;;1.80;;
76065;SDS011;64763;48.928;8.474;2023-04-24T08:24:26;3.25;;;1.58;;
76065;SDS011;64763;48.928;8.474;2023-04-24T08:26:51;3.30;;;1.60;;
76065;SDS011;64763;48.928;8.474;2023-04-24T08:29:18;4.88;;;2.20;;
76065;SDS011;64763;48.928;8.474;2023-04-24T08:31:44;3.25;;;1.80;;
76065;SDS011;64763;48.928;8.474;2023-04-24T08:34:09;4.13;;;2.00;;
76065;SDS011;64763;48.928;8.474;2023-04-24T08:36:35;2.95;;;1.85;;
76065;SDS011;64763;48.928;8.474;2023-04-24T08:39:01;2.28;;;1.70;;
76065;SDS011;64763;48.928;8.474;2023-04-24T08:41:26;3.28;;;1.73;;
76065;SDS011;64763;48.928;8.474;2023-04-24T08:43:52;8.60;;;2.10;;
76065;SDS011;64763;48.928;8.474;2023-04-24T08:46:18;3.70;;;2.08;;
76065;SDS011;64763;48.928;8.474;2023-04-24T08:48:44;3.13;;;1.83;;
76065;SDS011;64763;48.928;8.474;2023-04-24T08:51:10;3.80;;;1.75;;
76065;SDS011;64763;48.928;8.474;2023-04-24T08:53:35;3.65;;;1.60;;
76065;SDS011;64763;48.928;8.474;2023-04-24T08:56:01;2.38;;;1.65;;
76065;SDS011;64763;48.928;8.474;2023-04-24T08:58:27;5.10;;;1.88;;
76065;SDS011;64763;48.928;8.474;2023-04-24T09:00:56;4.38;;;1.98;;
76065;SDS011;64763;48.928;8.474;2023-04-24T09:03:22;3.85;;;1.73;;
76065;SDS011;64763;48.928;8.474;2023-04-24T09:05:48;4.93;;;2.03;;
76065;SDS011;64763;48.928;8.474;2023-04-24T09:08:16;2.45;;;1.65;;
76065;SDS011;64763;48.928;8.474;2023-04-24T09:10:43;4.60;;;1.80;;
76065;SDS011;64763;48.928;8.474;2023-04-24T09:13:08;1.92;;;1.30;;
76065;SDS011;64763;48.928;8.474;2023-04-24T09:15:35;2.90;;;1.70;;
76065;SDS011;64763;48.928;8.474;2023-04-24T09:18:00;3.45;;;1.77;;
76065;SDS011;64763;48.928;8.474;2023-04-24T09:20:26;6.10;;;1.83;;
76065;SDS011;64763;48.928;8.474;2023-04-24T09:22:53;3.15;;;1.92;;
76065;SDS011;64763;48.928;8.474;2023-04-24T09:25:20;3.95;;;1.73;;
76065;SDS011;64763;48.928;8.474;2023-04-24T09:27:46;5.10;;;2.10;;
76065;SDS011;64763;48.928;8.474;2023-04-24T09:30:12;2.72;;;1.85;;
76065;SDS011;64763;48.928;8.474;2023-04-24T09:32:37;5.45;;;2.00;;
76065;SDS011;64763;48.928;8.474;2023-04-24T09:37:39;3.25;;;1.98;;
76065;SDS011;64763;48.928;8.474;2023-04-24T09:42:45;3.67;;;2.28;;
76065;SDS011;64763;48.928;8.474;2023-04-24T09:45:10;3.50;;;2.20;;
76065;SDS011;64763;48.928;8.474;2023-04-24T09:47:39;2.70;;;1.77;;
76065;SDS011;64763;48.928;8.474;2023-04-24T09:50:15;3.70;;;2.22;;
76065;SDS011;64763;48.928;8.474;2023-04-24T09:52:42;5.20;;;2.13;;
76065;SDS011;64763;48.928;8.474;2023-04-24T09:55:18;4.05;;;2.30;;
76065;SDS011;64763;48.928;8.474;2023-04-24T09:57:51;3.35;;;1.95;;
76065;SDS011;64763;48.928;8.474;2023-04-24T10:00:18;3.75;;;1.90;;
76065;SDS011;64763;48.928;8.474;2023-04-24T10:02:50;4.18;;;2.10;;
76065;SDS011;64763;48.928;8.474;2023-04-24T10:05:17;3.45;;;2.28;;
76065;SDS011;64763;48.928;8.474;2023-04-24T10:07:43;4.18;;;2.20;;
76065;SDS011;64763;48.928;8.474;2023-04-24T10:10:08;3.35;;;1.90;;
76065;SDS011;64763;48.928;8.474;2023-04-24T10:12:34;4.55;;;1.85;;
76065;SDS011;64763;48.928;8.474;2023-04-24T10:14:59;2.83;;;2.30;;
76065;SDS011;64763;48.928;8.474;2023-04-24T10:17:26;3.15;;;1.90;;
76065;SDS011;64763;48.928;8.474;2023-04-24T10:19:52;3.50;;;1.92;;
76065;SDS011;64763;48.928;8.474;2023-04-24T10:22:18;3.33;;;1.70;;
76065;SDS011;64763;48.928;8.474;2023-04-24T10:24:43;2.90;;;2.00;;
76065;SDS011;64763;48.928;8.474;2023-04-24T10:27:09;3.95;;;2.20;;
76065;SDS011;64763;48.928;8.474;2023-04-24T10:29:34;4.55;;;2.58;;
76065;SDS011;64763;48.928;8.474;2023-04-24T10:32:00;3.25;;;2.25;;
76065;SDS011;64763;48.928;8.474;2023-04-24T10:34:26;4.45;;;2.08;;
76065;SDS011;64763;48.928;8.474;2023-04-24T10:36:52;3.60;;;2.45;;
76065;SDS011;64763;48.928;8.474;2023-04-24T10:39:18;4.85;;;2.13;;
76065;SDS011;64763;48.928;8.474;2023-04-24T10:41:43;3.63;;;2.30;;
76065;SDS011;64763;48.928;8.474;2023-04-24T10:44:10;2.65;;;2.00;;
76065;SDS011;64763;48.928;8.474;2023-04-24T10:46:38;3.95;;;2.08;;
76065;SDS011;64763;48.928;8.474;2023-04-24T10:49:05;4.93;;;2.10;;
76065;SDS011;64763;48.928;8.474;2023-04-24T10:51:49;3.05;;;2.10;;
76065;SDS011;64763;48.928;8.474;2023-04-24T10:54:24;3.38;;;2.00;;
76065;SDS011;64763;48.928;8.474;2023-04-24T10:57:25;3.63;;;1.88;;
76065;SDS011;64763;48.928;8.474;2023-04-24T10:59:45;4.72;;;2.22;;
76065;SDS011;64763;48.928;8.474;2023-04-24T11:02:10;3.47;;;1.73;;
76065;SDS011;64763;48.928;8.474;2023-04-24T11:04:36;3.58;;;2.10;;
76065;SDS011;64763;48.928;8.474;2023-04-24T11:07:04;2.70;;;2.05;;
76065;SDS011;64763;48.928;8.474;2023-04-24T11:09:30;5.35;;;2.17;;
76065;SDS011;64763;48.928;8.474;2023-04-24T11:17:36;4.35;;;2.28;;
76065;SDS011;64763;48.928;8.474;2023-04-24T11:22:38;3.88;;;2.25;;
76065;SDS011;64763;48.928;8.474;2023-04-24T11:25:07;2.67;;;1.98;;
76065;SDS011;64763;48.928;8.474;2023-04-24T11:30:07;3.28;;;2.13;;
76065;SDS011;64763;48.928;8.474;2023-04-24T11:34:59;4.27;;;2.27;;
76065;SDS011;64763;48.928;8.474;2023-04-24T11:40:02;3.42;;;2.05;;
76065;SDS011;64763;48.928;8.474;2023-04-24T11:42:33;2.67;;;1.95;;
76065;SDS011;64763;48.928;8.474;2023-04-24T11:45:02;3.30;;;1.85;;
76065;SDS011;64763;48.928;8.474;2023-04-24T11:47:32;6.80;;;2.20;;
76065;SDS011;64763;48.928;8.474;2023-04-24T11:49:58;5.53;;;2.53;;
76065;SDS011;64763;48.928;8.474;2023-04-24T11:52:25;3.90;;;2.53;;
76065;SDS011;64763;48.928;8.474;2023-04-24T11:54:51;2.55;;;2.00;;
76065;SDS011;64763;48.928;8.474;2023-04-24T11:57:18;3.67;;;2.00;;
76065;SDS011;64763;48.928;8.474;2023-04-24T11:59:45;3.88;;;2.30;;
76065;SDS011;64763;48.928;8.474;2023-04-24T12:02:19;11.07;;;2.95;;
76065;SDS011;64763;48.928;8.474;2023-04-24T12:04:46;4.28;;;2.55;;
76065;SDS011;64763;48.928;8.474;2023-04-24T12:07:11;3.20;;;2.03;;
76065;SDS011;64763;48.928;8.474;2023-04-24T12:09:55;3.75;;;2.60;;
76065;SDS011;64763;48.928;8.474;2023-04-24T12:12:24;4.00;;;2.78;;
76065;SDS011;64763;48.928;8.474;2023-04-24T12:17:29;5.47;;;2.70;;
76065;SDS011;64763;48.928;8.474;2023-04-24T12:19:59;3.67;;;2.58;;
76065;SDS011;64763;48.928;8.474;2023-04-24T12:25:15;3.72;;;2.75;;
76065;SDS011;64763;48.928;8.474;2023-04-24T12:27:41;4.90;;;3.00;;
76065;SDS011;64763;48.928;8.474;2023-04-24T12:30:09;6.28;;;3.35;;
76065;SDS011;64763;48.928;8.474;2023-04-24T12:32:46;7.07;;;2.95;;
76065;SDS011;64763;48.928;8.474;2023-04-24T12:35:18;4.47;;;3.00;;
76065;SDS011;64763;48.928;8.474;2023-04-24T12:37:45;6.60;;;3.42;;
76065;SDS011;64763;48.928;8.474;2023-04-24T12:40:11;3.88;;;2.63;;
76065;SDS011;64763;48.928;8.474;2023-04-24T12:42:47;6.57;;;3.33;;
76065;SDS011;64763;48.928;8.474;2023-04-24T12:45:14;5.43;;;3.20;;
76065;SDS011;64763;48.928;8.474;2023-04-24T12:47:40;4.88;;;2.72;;
76065;SDS011;64763;48.928;8.474;2023-04-24T12:50:09;4.60;;;2.63;;
76065;SDS011;64763;48.928;8.474;2023-04-24T12:52:36;4.18;;;2.08;;
76065;SDS011;64763;48.928;8.474;2023-04-24T12:55:02;3.70;;;2.70;;
76065;SDS011;64763;48.928;8.474;2023-04-24T12:57:28;3.47;;;2.30;;
76065;SDS011;64763;48.928;8.474;2023-04-24T12:59:55;4.22;;;2.65;;
76065;SDS011;64763;48.928;8.474;2023-04-24T13:02:22;4.72;;;2.75;;
76065;SDS011;64763;48.928;8.474;2023-04-24T13:04:48;4.68;;;2.97;;
76065;SDS011;64763;48.928;8.474;2023-04-24T13:07:14;5.35;;;2.55;;
76065;SDS011;64763;48.928;8.474;2023-04-24T13:09:40;4.38;;;2.58;;
76065;SDS011;64763;48.928;8.474;2023-04-24T13:12:06;4.97;;;3.17;;
76065;SDS011;64763;48.928;8.474;2023-04-24T13:14:32;8.98;;;2.60;;
76065;SDS011;64763;48.928;8.474;2023-04-24T13:16:57;4.97;;;3.15;;
76065;SDS011;64763;48.928;8.474;2023-04-24T13:19:24;4.15;;;2.53;;
76065;SDS011;64763;48.928;8.474;2023-04-24T13:21:51;3.88;;;2.75;;
76065;SDS011;64763;48.928;8.474;2023-04-24T13:24:17;3.70;;;2.50;;
76065;SDS011;64763;48.928;8.474;2023-04-24T13:26:42;5.22;;;2.60;;
76065;SDS011;64763;48.928;8.474;2023-04-24T13:29:08;3.97;;;2.85;;
76065;SDS011;64763;48.928;8.474;2023-04-24T13:31:33;4.32;;;2.97;;
76065;SDS011;64763;48.928;8.474;2023-04-24T13:33:59;5.05;;;3.28;;
76065;SDS011;64763;48.928;8.474;2023-04-24T13:36:24;4.22;;;2.63;;
76065;SDS011;64763;48.928;8.474;2023-04-24T13:38:50;4.28;;;2.90;;
76065;SDS011;64763;48.928;8.474;2023-04-24T13:41:15;3.85;;;2.90;;
76065;SDS011;64763;48.928;8.474;2023-04-24T13:43:41;4.38;;;2.85;;
76065;SDS011;64763;48.928;8.474;2023-04-24T13:46:07;3.45;;;2.60;;
76065;SDS011;64763;48.928;8.474;2023-04-24T13:48:33;4.18;;;2.20;;
76065;SDS011;64763;48.928;8.474;2023-04-24T13:50:58;3.63;;;2.15;;
76065;SDS011;64763;48.928;8.474;2023-04-24T13:53:23;4.22;;;2.03;;
76065;SDS011;64763;48.928;8.474;2023-04-24T13:55:49;3.45;;;2.40;;
76065;SDS011;64763;48.928;8.474;2023-04-24T13:58:14;3.10;;;2.30;;
76065;SDS011;64763;48.928;8.474;2023-04-24T14:00:40;4.07;;;2.30;;
76065;SDS011;64763;48.928;8.474;2023-04-24T14:03:05;4.18;;;2.20;;
76065;SDS011;64763;48.928;8.474;2023-04-24T14:05:31;3.55;;;2.35;;
76065;SDS011;64763;48.928;8.474;2023-04-24T14:07:56;3.17;;;2.28;;
76065;SDS011;64763;48.928;8.474;2023-04-24T14:10:21;4.70;;;2.33;;
76065;SDS011;64763;48.928;8.474;2023-04-24T14:12:47;3.60;;;2.15;;
76065;SDS011;64763;48.928;8.474;2023-04-24T14:15:13;3.55;;;2.10;;
76065;SDS011;64763;48.928;8.474;2023-04-24T14:17:38;3.30;;;1.90;;
76065;SDS011;64763;48.928;8.474;2023-04-24T14:20:04;4.18;;;2.60;;
76065;SDS011;64763;48.928;8.474;2023-04-24T14:22:30;3.97;;;2.38;;
76065;SDS011;64763;48.928;8.474;2023-04-24T14:24:55;3.35;;;2.10;;
76065;SDS011;64763;48.928;8.474;2023-04-24T14:27:21;3.53;;;2.00;;
76065;SDS011;64763;48.928;8.474;2023-04-24T14:29:46;3.53;;;2.67;;
76065;SDS011;64763;48.928;8.474;2023-04-24T14:32:11;3.90;;;2.20;;
76065;SDS011;64763;48.928;8.474;2023-04-24T14:34:39;3.28;;;2.00;;
76065;SDS011;64763;48.928;8.474;2023-04-24T14:37:05;3.70;;;1.65;;
76065;SDS011;64763;48.928;8.474;2023-04-24T14:39:30;4.00;;;1.80;;
76065;SDS011;64763;48.928;8.474;2023-04-24T14:41:55;3.45;;;1.65;;
76065;SDS011;64763;48.928;8.474;2023-04-24T14:44:21;3.85;;;1.60;;
76065;SDS011;64763;48.928;8.474;2023-04-24T14:46:48;2.83;;;1.90;;
76065;SDS011;64763;48.928;8.474;2023-04-24T14:49:13;3.17;;;1.50;;
76065;SDS011;64763;48.928;8.474;2023-04-24T14:51:39;2.88;;;1.80;;
76065;SDS011;64763;48.928;8.474;2023-04-24T14:54:05;2.55;;;1.75;;
76065;SDS011;64763;48.928;8.474;2023-04-24T14:56:31;2.67;;;2.08;;
76065;SDS011;64763;48.928;8.474;2023-04-24T14:58:56;4.28;;;1.77;;
76065;SDS011;64763;48.928;8.474;2023-04-24T15:01:22;2.38;;;1.85;;
76065;SDS011;64763;48.928;8.474;2023-04-24T15:03:48;2.65;;;1.83;;
76065;SDS011;64763;48.928;8.474;2023-04-24T15:06:14;3.20;;;1.92;;
76065;SDS011;64763;48.928;8.474;2023-04-24T15:08:42;3.05;;;1.90;;